Skip Navigation Links
NOAA logo - Click to go to the NOAA homepage
NOAA's National Weather Service
Alaska Aviation Weather Unit
  NWS logo - Click to go to the NWS homepage
Left Navbar Graphic     03 AKDT = 11 GMT

   
NOAA is celebrating 200 years of science, service, and stewardship. Visit the NOAA 200th celebration Web site to learn more.
USA.gov is the U.S. Government's official Web portal to all Federal, state and local government Web resources and services.
Facebook
NWS on Facebook

AAWU Home :: Display TAF Add Bookmark
TAF PAKN 290532Z 2906/3006 33008KT P6SM SCT035=

METAR PAKN 290554Z 02003KT 10SM FEW040 M08/M13 A2966= METAR PAKN 290654Z 30003KT 10SM CLR M09/M12 A2967= METAR PAKN 290754Z 04003KT 10SM CLR M12/M14 A2969= METAR PAKN 290854Z 00000KT 10SM CLR M13/M14 A2970= METAR PAKN 290954Z 00000KT 10SM CLR M14/M17 A2971= METAR PAKN 291054Z 29003KT 10SM CLR M14/M17 A2972 RMK AO2 SLP064 T11441167=
 Alaska TAF Map

NOAA's National Weather Service
Alaska Aviation Weather Unit
6930 Sand Lake Road
Anchorage, AK 99502-1845
Disclaimer
Credits
Glossary
Privacy Policy
About Us
Career Opportunities
Contact AAWU Internet Services Site last modified: April, 17th 2012